Time;durP1;ratioP1;P1;durP2;ratioP2;P2;SDS_P1;SDS_P2;PMS_P1;PMS_P2;Temp;Humidity;BMP_temperature;BMP_pressure;BME280_temperature;BME280_humidity;BME280_pressure;Samples;Min_cycle;Max_cycle;Signal;HPM_P1;HPM_P2
2023/12/08 00:01:48;;;;;;;29.08;26.58;;;;;;;;;;5073646;28;20241;-75
2023/12/08 00:04:15;;;;;;;28.20;25.80;;;;;;;;;;5073184;28;20290;-74
2023/12/08 00:06:42;;;;;;;26.08;24.08;;;;;;;;;;5073996;28;20220;-75
2023/12/08 00:09:10;;;;;;;25.42;23.50;;;;;;;;;;5073699;28;20273;-75
2023/12/08 00:11:38;;;;;;;27.83;25.52;;;;;;;;;;5073543;28;20207;-75
2023/12/08 00:14:06;;;;;;;27.95;25.42;;;;;;;;;;5072719;28;20762;-74
2023/12/08 00:16:33;;;;;;;21.98;20.58;;;;;;;;;;5073356;28;20297;-75
2023/12/08 00:19:00;;;;;;;24.67;22.83;;;;;;;;;;5073640;28;20615;-75
2023/12/08 00:21:27;;;;;;;25.48;23.52;;;;;;;;;;5073665;28;20211;-74
2023/12/08 00:23:54;;;;;;;26.25;24.35;;;;;;;;;;5073241;28;20261;-74
2023/12/08 00:26:22;;;;;;;26.80;24.60;;;;;;;;;;5073301;28;20203;-74
2023/12/08 00:28:49;;;;;;;26.80;24.67;;;;;;;;;;5065783;28;20204;-74
2023/12/08 00:31:16;;;;;;;25.23;23.25;;;;;;;;;;5057370;28;20422;-75
2023/12/08 00:33:43;;;;;;;27.42;25.10;;;;;;;;;;5055128;28;20289;-75
2023/12/08 00:36:13;;;;;;;27.45;25.13;;;;;;;;;;5072730;28;20199;-74
2023/12/08 00:38:41;;;;;;;26.50;24.50;;;;;;;;;;5073387;28;20659;-74
2023/12/08 00:41:09;;;;;;;27.33;25.25;;;;;;;;;;5073345;28;20294;-75
2023/12/08 00:43:38;;;;;;;26.38;24.27;;;;;;;;;;5073752;28;20215;-74
2023/12/08 00:46:05;;;;;;;28.00;25.70;;;;;;;;;;5072404;28;20671;-74
2023/12/08 00:48:32;;;;;;;26.00;24.20;;;;;;;;;;5073465;28;20277;-75
2023/12/08 00:50:59;;;;;;;26.17;24.23;;;;;;;;;;5072805;28;20234;-74
2023/12/08 00:53:26;;;;;;;24.77;22.98;;;;;;;;;;5072054;28;20317;-74
2023/12/08 00:55:53;;;;;;;25.23;23.10;;;;;;;;;;5072275;28;20204;-74
2023/12/08 00:58:20;;;;;;;26.10;24.10;;;;;;;;;;5073226;28;20277;-74
2023/12/08 01:00:49;;;;;;;26.35;23.85;;;;;;;;;;5072866;28;20200;-74
2023/12/08 01:03:16;;;;;;;26.77;24.77;;;;;;;;;;5072979;28;20212;-74
2023/12/08 01:05:43;;;;;;;21.98;20.58;;;;;;;;;;5072013;28;20946;-74
2023/12/08 01:08:10;;;;;;;25.45;23.45;;;;;;;;;;5072270;28;20636;-74
2023/12/08 01:10:37;;;;;;;26.00;24.10;;;;;;;;;;5072387;28;20699;-74
2023/12/08 01:13:04;;;;;;;27.33;25.05;;;;;;;;;;5072396;28;20623;-74
2023/12/08 01:15:31;;;;;;;29.27;26.90;;;;;;;;;;5071999;28;20211;-74
2023/12/08 01:17:59;;;;;;;24.77;23.10;;;;;;;;;;5072318;28;20227;-74
2023/12/08 01:20:26;;;;;;;25.38;23.63;;;;;;;;;;5072354;28;20199;-74
2023/12/08 01:22:54;;;;;;;27.20;25.15;;;;;;;;;;5072946;28;20253;-74
2023/12/08 01:25:21;;;;;;;26.23;24.23;;;;;;;;;;5071947;28;20270;-74
2023/12/08 01:27:48;;;;;;;26.52;24.40;;;;;;;;;;5072170;28;20253;-75
2023/12/08 01:30:15;;;;;;;26.77;24.75;;;;;;;;;;5071966;28;20227;-74
2023/12/08 01:32:42;;;;;;;25.35;23.65;;;;;;;;;;5072196;28;20347;-74
2023/12/08 01:35:11;;;;;;;26.20;24.30;;;;;;;;;;5071714;28;20271;-74
2023/12/08 01:37:38;;;;;;;25.85;23.92;;;;;;;;;;5072651;28;20289;-74
2023/12/08 01:40:06;;;;;;;26.95;24.95;;;;;;;;;;5071668;28;20332;-74
2023/12/08 01:42:33;;;;;;;27.52;25.50;;;;;;;;;;5060593;28;20243;-74
2023/12/08 01:45:00;;;;;;;27.20;25.20;;;;;;;;;;5051715;28;20208;-74
2023/12/08 01:47:27;;;;;;;27.20;24.95;;;;;;;;;;5051959;28;20224;-74
2023/12/08 01:49:54;;;;;;;27.80;25.90;;;;;;;;;;5051855;28;20232;-74
2023/12/08 01:52:24;;;;;;;26.27;24.38;;;;;;;;;;5051893;28;20672;-74
2023/12/08 01:54:54;;;;;;;26.73;24.80;;;;;;;;;;5051388;28;20210;-74
2023/12/08 01:57:21;;;;;;;27.50;25.40;;;;;;;;;;5051559;28;20254;-74
2023/12/08 01:59:49;;;;;;;25.33;23.35;;;;;;;;;;5051680;28;20216;-74
2023/12/08 02:02:16;;;;;;;27.95;25.90;;;;;;;;;;5051811;28;20807;-74
2023/12/08 02:04:44;;;;;;;25.17;23.35;;;;;;;;;;5050322;28;20218;-74
2023/12/08 02:07:11;;;;;;;25.80;23.98;;;;;;;;;;5051132;28;20638;-74
2023/12/08 02:09:40;;;;;;;26.42;24.38;;;;;;;;;;5051820;28;20613;-74
2023/12/08 02:12:07;;;;;;;26.02;24.23;;;;;;;;;;5051515;28;20212;-74
2023/12/08 02:14:34;;;;;;;28.10;25.90;;;;;;;;;;5050846;28;20571;-74
2023/12/08 02:17:04;;;;;;;27.52;25.52;;;;;;;;;;5051581;28;20631;-74
2023/12/08 02:19:32;;;;;;;23.48;21.80;;;;;;;;;;5051555;28;20274;-74
2023/12/08 02:21:58;;;;;;;28.38;25.92;;;;;;;;;;5051454;28;20615;-74
2023/12/08 02:24:27;;;;;;;26.88;25.00;;;;;;;;;;5050480;28;20274;-74
2023/12/08 02:26:55;;;;;;;26.75;24.85;;;;;;;;;;5051013;28;20228;-73
2023/12/08 02:29:22;;;;;;;26.80;24.75;;;;;;;;;;5051073;28;20204;-73
2023/12/08 02:31:53;;;;;;;26.50;24.48;;;;;;;;;;5050615;28;20200;-73
2023/12/08 02:34:21;;;;;;;27.17;25.08;;;;;;;;;;5050548;28;20552;-74
2023/12/08 02:36:49;;;;;;;26.00;24.00;;;;;;;;;;5051268;28;20228;-74
2023/12/08 02:39:17;;;;;;;25.80;24.00;;;;;;;;;;5051232;28;20238;-74
2023/12/08 02:41:46;;;;;;;24.73;23.00;;;;;;;;;;5050837;28;20212;-74
2023/12/08 02:44:13;;;;;;;25.45;23.63;;;;;;;;;;5050327;28;20204;-74
2023/12/08 02:46:40;;;;;;;27.30;25.27;;;;;;;;;;5050854;28;20236;-74
2023/12/08 02:49:07;;;;;;;22.73;21.38;;;;;;;;;;5051379;28;20240;-73
2023/12/08 02:51:34;;;;;;;27.58;25.35;;;;;;;;;;5050674;28;20285;-74
2023/12/08 02:54:01;;;;;;;25.45;23.60;;;;;;;;;;5050417;28;20254;-73
2023/12/08 02:56:28;;;;;;;24.00;22.23;;;;;;;;;;5050718;28;20270;-74
2023/12/08 02:58:56;;;;;;;26.08;24.02;;;;;;;;;;5050639;28;20212;-74
2023/12/08 03:01:23;;;;;;;25.05;23.25;;;;;;;;;;5050740;28;20200;-74
2023/12/08 03:03:50;;;;;;;22.10;20.65;;;;;;;;;;5050589;28;20266;-74
2023/12/08 03:06:17;;;;;;;27.00;24.90;;;;;;;;;;5050922;28;20204;-74
2023/12/08 03:08:44;;;;;;;25.00;23.10;;;;;;;;;;5050632;28;20220;-74
2023/12/08 03:11:11;;;;;;;25.55;23.83;;;;;;;;;;5050454;28;20220;-73
2023/12/08 03:13:38;;;;;;;26.40;24.23;;;;;;;;;;5050513;28;20212;-75
2023/12/08 03:16:07;;;;;;;21.60;20.50;;;;;;;;;;5051921;28;20659;-74
2023/12/08 03:18:35;;;;;;;26.10;24.20;;;;;;;;;;5054796;28;20302;-74
2023/12/08 03:21:02;;;;;;;23.60;22.17;;;;;;;;;;5054753;28;20515;-74
2023/12/08 03:23:29;;;;;;;27.15;24.90;;;;;;;;;;5054897;28;20620;-74
2023/12/08 03:25:56;;;;;;;24.35;22.85;;;;;;;;;;5054381;28;20212;-76
2023/12/08 03:28:23;;;;;;;25.92;23.92;;;;;;;;;;5054318;28;21059;-74
2023/12/08 03:30:50;;;;;;;25.60;23.80;;;;;;;;;;5054402;28;20282;-73
2023/12/08 03:33:18;;;;;;;26.38;24.45;;;;;;;;;;5054461;28;20729;-74
2023/12/08 03:35:45;;;;;;;23.50;21.92;;;;;;;;;;5053758;28;20722;-74
2023/12/08 03:38:12;;;;;;;25.73;24.00;;;;;;;;;;5054255;28;20700;-74
2023/12/08 03:40:39;;;;;;;27.73;25.63;;;;;;;;;;5054141;28;20672;-74
2023/12/08 03:43:06;;;;;;;27.65;25.55;;;;;;;;;;5053990;28;20603;-74
2023/12/08 03:45:33;;;;;;;25.35;23.42;;;;;;;;;;5053557;28;20874;-74
2023/12/08 03:48:00;;;;;;;27.10;24.90;;;;;;;;;;5053961;28;20232;-74
2023/12/08 03:50:28;;;;;;;27.13;25.02;;;;;;;;;;5054152;28;20254;-74
2023/12/08 03:52:55;;;;;;;26.25;24.35;;;;;;;;;;5054331;28;20220;-74
2023/12/08 03:55:23;;;;;;;23.35;21.98;;;;;;;;;;5053635;28;20215;-74
2023/12/08 03:57:50;;;;;;;28.13;26.00;;;;;;;;;;5053584;28;20723;-74
2023/12/08 04:00:17;;;;;;;25.90;23.90;;;;;;;;;;5053921;28;20196;-74
2023/12/08 04:02:44;;;;;;;25.88;23.98;;;;;;;;;;5053552;28;20979;-74
2023/12/08 04:05:11;;;;;;;28.73;26.58;;;;;;;;;;5052733;28;20200;-73
2023/12/08 04:07:41;;;;;;;25.60;23.83;;;;;;;;;;5053694;28;20224;-74
2023/12/08 04:10:08;;;;;;;25.80;23.98;;;;;;;;;;5053704;28;20204;-74
2023/12/08 04:12:35;;;;;;;26.30;24.25;;;;;;;;;;5053828;28;20219;-74
2023/12/08 04:15:03;;;;;;;28.15;25.85;;;;;;;;;;5053066;28;20266;-74
2023/12/08 04:17:29;;;;;;;27.30;25.30;;;;;;;;;;5053292;28;20323;-74
2023/12/08 04:19:56;;;;;;;27.13;25.10;;;;;;;;;;5053381;28;20660;-74
2023/12/08 04:22:23;;;;;;;29.20;26.80;;;;;;;;;;5053233;28;20678;-74
2023/12/08 04:24:52;;;;;;;27.48;25.42;;;;;;;;;;5052946;28;20211;-74
2023/12/08 04:27:19;;;;;;;28.88;26.70;;;;;;;;;;5053231;28;20286;-74
2023/12/08 04:29:46;;;;;;;28.13;26.10;;;;;;;;;;5053431;28;20212;-73
2023/12/08 04:32:13;;;;;;;27.20;25.40;;;;;;;;;;5052972;28;20228;-73
2023/12/08 04:34:40;;;;;;;28.90;26.73;;;;;;;;;;5053094;28;20212;-74
2023/12/08 04:37:07;;;;;;;29.33;27.02;;;;;;;;;;5053042;28;20289;-74
2023/12/08 04:39:34;;;;;;;28.77;26.48;;;;;;;;;;5052822;28;20208;-74
2023/12/08 04:42:02;;;;;;;29.98;27.48;;;;;;;;;;5052813;28;20649;-75
2023/12/08 04:44:29;;;;;;;28.63;26.55;;;;;;;;;;5052438;28;20656;-75
2023/12/08 04:46:56;;;;;;;28.73;26.65;;;;;;;;;;5052924;28;20707;-75
2023/12/08 04:49:23;;;;;;;26.92;25.00;;;;;;;;;;5053030;28;20886;-75
2023/12/08 04:51:50;;;;;;;29.13;26.63;;;;;;;;;;5052976;28;20224;-74
2023/12/08 04:54:17;;;;;;;27.48;25.42;;;;;;;;;;5052517;28;20216;-75
2023/12/08 04:56:44;;;;;;;28.08;25.98;;;;;;;;;;5052724;28;20232;-75
2023/12/08 04:59:12;;;;;;;28.50;26.25;;;;;;;;;;5052722;28;20212;-75
2023/12/08 05:01:39;;;;;;;29.35;26.90;;;;;;;;;;5053026;28;20265;-75
2023/12/08 05:04:07;;;;;;;33.10;30.13;;;;;;;;;;5052053;28;20220;-74
2023/12/08 05:06:34;;;;;;;30.77;28.27;;;;;;;;;;5052185;28;20971;-75
2023/12/08 05:09:00;;;;;;;28.52;26.33;;;;;;;;;;5052253;28;20731;-75
2023/12/08 05:11:27;;;;;;;25.83;23.95;;;;;;;;;;5052074;28;20224;-75
2023/12/08 05:13:54;;;;;;;27.58;25.35;;;;;;;;;;5051870;28;20630;-75
2023/12/08 05:16:23;;;;;;;27.70;25.58;;;;;;;;;;5052218;28;20750;-75
2023/12/08 05:18:50;;;;;;;29.95;27.25;;;;;;;;;;5052355;28;20613;-74
2023/12/08 05:21:17;;;;;;;28.30;26.10;;;;;;;;;;5052131;28;20668;-75
2023/12/08 05:23:44;;;;;;;26.73;24.70;;;;;;;;;;5052220;28;20730;-75
2023/12/08 05:26:11;;;;;;;27.75;25.58;;;;;;;;;;5051813;28;20726;-75
2023/12/08 05:28:38;;;;;;;27.70;25.30;;;;;;;;;;5052289;28;20215;-75
2023/12/08 05:31:05;;;;;;;28.50;26.17;;;;;;;;;;5052228;28;20232;-74
2023/12/08 05:33:34;;;;;;;29.85;27.40;;;;;;;;;;5052322;28;20208;-75
2023/12/08 05:36:01;;;;;;;30.17;27.90;;;;;;;;;;5051874;28;20200;-75
2023/12/08 05:38:28;;;;;;;29.05;26.63;;;;;;;;;;5051412;28;20279;-75
2023/12/08 05:40:55;;;;;;;28.05;25.88;;;;;;;;;;5051383;28;20212;-75
2023/12/08 05:43:22;;;;;;;27.73;25.63;;;;;;;;;;5051895;28;20212;-75
2023/12/08 05:45:49;;;;;;;27.50;25.40;;;;;;;;;;5051693;28;20200;-74
2023/12/08 05:48:16;;;;;;;27.35;25.45;;;;;;;;;;5052056;28;20251;-75
2023/12/08 05:50:45;;;;;;;27.63;25.35;;;;;;;;;;5052041;28;20613;-75
2023/12/08 05:53:13;;;;;;;28.90;26.45;;;;;;;;;;5051811;28;20582;-75
2023/12/08 05:55:40;;;;;;;29.25;26.85;;;;;;;;;;5050734;28;20671;-75
2023/12/08 05:58:07;;;;;;;28.20;26.08;;;;;;;;;;5051569;28;20711;-75
2023/12/08 06:00:34;;;;;;;29.80;27.63;;;;;;;;;;5051268;28;20607;-75
2023/12/08 06:03:01;;;;;;;27.95;25.75;;;;;;;;;;5052048;28;20208;-74
2023/12/08 06:05:28;;;;;;;26.80;24.90;;;;;;;;;;5051240;28;20220;-75
2023/12/08 06:07:56;;;;;;;28.60;26.40;;;;;;;;;;5051465;28;20965;-75
2023/12/08 06:10:23;;;;;;;28.73;26.63;;;;;;;;;;5051884;28;20204;-75
2023/12/08 06:12:50;;;;;;;30.67;28.27;;;;;;;;;;5051345;28;20571;-75
2023/12/08 06:15:17;;;;;;;29.58;27.27;;;;;;;;;;5050692;28;20690;-75
2023/12/08 06:17:44;;;;;;;28.63;26.23;;;;;;;;;;5051516;28;20228;-75
2023/12/08 06:20:12;;;;;;;29.63;26.80;;;;;;;;;;5051537;28;20204;-75
2023/12/08 06:22:40;;;;;;;28.90;26.45;;;;;;;;;;5051371;28;20204;-75
2023/12/08 06:25:08;;;;;;;29.40;26.90;;;;;;;;;;5050764;28;20208;-75
2023/12/08 06:27:35;;;;;;;28.63;26.38;;;;;;;;;;5051117;28;20219;-75
2023/12/08 06:30:02;;;;;;;30.42;27.90;;;;;;;;;;5050745;28;20208;-75
2023/12/08 06:32:29;;;;;;;30.42;28.00;;;;;;;;;;5051027;28;20224;-75
2023/12/08 06:34:56;;;;;;;31.17;28.73;;;;;;;;;;5050673;28;20231;-75
2023/12/08 06:37:23;;;;;;;27.58;25.38;;;;;;;;;;5051057;28;20906;-75
2023/12/08 06:39:50;;;;;;;29.77;27.42;;;;;;;;;;5050979;28;20897;-75
2023/12/08 06:42:19;;;;;;;31.70;28.98;;;;;;;;;;5050924;28;20577;-75
2023/12/08 06:44:46;;;;;;;30.73;27.88;;;;;;;;;;5050196;28;20298;-75
2023/12/08 06:47:13;;;;;;;28.85;26.45;;;;;;;;;;5050704;28;20232;-74
2023/12/08 06:49:40;;;;;;;32.20;29.30;;;;;;;;;;5050996;28;20268;-75
2023/12/08 06:52:07;;;;;;;29.67;27.27;;;;;;;;;;5051284;28;20223;-75
2023/12/08 06:54:34;;;;;;;30.95;28.35;;;;;;;;;;5050554;28;20212;-75
2023/12/08 06:57:01;;;;;;;32.10;29.23;;;;;;;;;;5050004;28;20251;-74
2023/12/08 06:59:29;;;;;;;31.40;28.60;;;;;;;;;;5050849;28;20250;-75
2023/12/08 07:01:56;;;;;;;30.48;27.98;;;;;;;;;;5059530;28;20214;-75
2023/12/08 07:04:23;;;;;;;32.20;29.25;;;;;;;;;;5050438;28;20208;-75
2023/12/08 07:06:50;;;;;;;29.83;27.33;;;;;;;;;;5050804;28;20281;-74
2023/12/08 07:09:17;;;;;;;30.40;27.70;;;;;;;;;;5050123;28;20238;-73
2023/12/08 07:11:44;;;;;;;35.03;31.83;;;;;;;;;;5050516;28;20228;-73
2023/12/08 07:14:12;;;;;;;34.13;31.23;;;;;;;;;;5049678;28;20211;-73
2023/12/08 07:16:43;;;;;;;29.55;27.17;;;;;;;;;;5050451;28;20315;-73
2023/12/08 07:19:10;;;;;;;27.80;25.58;;;;;;;;;;5050051;28;20212;-74
2023/12/08 07:21:42;;;;;;;34.67;31.35;;;;;;;;;;5050171;28;20204;-74
2023/12/08 07:24:09;;;;;;;32.45;29.55;;;;;;;;;;5050030;28;20212;-74
2023/12/08 07:26:36;;;;;;;31.23;28.42;;;;;;;;;;5050390;28;20616;-74
2023/12/08 07:29:03;;;;;;;32.80;29.80;;;;;;;;;;5050619;28;20230;-73
2023/12/08 07:31:30;;;;;;;30.88;28.15;;;;;;;;;;5049544;28;20232;-74
2023/12/08 07:33:58;;;;;;;29.73;27.35;;;;;;;;;;5049714;28;20216;-73
2023/12/08 07:36:25;;;;;;;32.80;29.80;;;;;;;;;;5050249;28;20230;-74
2023/12/08 07:38:52;;;;;;;32.75;30.05;;;;;;;;;;5049910;28;20197;-74
2023/12/08 07:41:19;;;;;;;33.95;30.52;;;;;;;;;;5050488;28;20614;-74
2023/12/08 07:43:48;;;;;;;31.73;28.90;;;;;;;;;;5049196;28;21053;-74
2023/12/08 07:46:15;;;;;;;32.92;29.90;;;;;;;;;;5050056;28;20345;-74
2023/12/08 07:48:42;;;;;;;31.77;28.63;;;;;;;;;;5050061;28;20262;-74
2023/12/08 07:51:11;;;;;;;32.55;29.48;;;;;;;;;;5060484;28;20269;-74
2023/12/08 07:53:38;;;;;;;32.78;29.98;;;;;;;;;;5069844;28;20207;-74
2023/12/08 07:56:05;;;;;;;33.22;30.10;;;;;;;;;;5069216;28;20682;-73
2023/12/08 07:58:32;;;;;;;31.25;28.33;;;;;;;;;;5070524;28;20255;-76
2023/12/08 08:00:59;;;;;;;32.42;29.33;;;;;;;;;;5070504;28;20192;-76
2023/12/08 08:03:26;;;;;;;33.25;30.08;;;;;;;;;;5073264;28;20230;-76
2023/12/08 08:05:53;;;;;;;33.72;30.48;;;;;;;;;;5073899;28;20200;-76
2023/12/08 08:08:22;;;;;;;29.95;27.10;;;;;;;;;;5074371;28;20226;-76
2023/12/08 08:10:49;;;;;;;33.60;30.15;;;;;;;;;;5074472;28;20207;-76
2023/12/08 08:13:16;;;;;;;32.80;29.88;;;;;;;;;;5074173;28;20630;-76
2023/12/08 08:15:43;;;;;;;31.52;28.60;;;;;;;;;;5076338;28;20206;-74
2023/12/08 08:18:10;;;;;;;34.55;31.38;;;;;;;;;;5074516;28;20288;-76
2023/12/08 08:20:37;;;;;;;35.08;31.73;;;;;;;;;;5074261;28;20257;-76
2023/12/08 08:23:05;;;;;;;31.30;28.35;;;;;;;;;;5074060;28;20214;-76
2023/12/08 08:25:33;;;;;;;34.75;31.48;;;;;;;;;;5073043;28;20280;-76
2023/12/08 08:28:01;;;;;;;34.97;31.42;;;;;;;;;;5073973;28;20227;-76
2023/12/08 08:30:28;;;;;;;33.60;30.50;;;;;;;;;;5074034;28;20211;-76
2023/12/08 08:32:55;;;;;;;33.20;30.23;;;;;;;;;;5068468;28;20254;-80
2023/12/08 08:35:21;;;;;;;29.65;27.20;;;;;;;;;;5056369;28;20212;-79
2023/12/08 08:37:48;;;;;;;33.97;30.92;;;;;;;;;;5059911;28;20228;-77
2023/12/08 08:40:16;;;;;;;35.28;31.77;;;;;;;;;;5053774;28;20261;-77
2023/12/08 08:42:45;;;;;;;37.50;34.00;;;;;;;;;;5053203;28;20258;-77
2023/12/08 08:45:12;;;;;;;36.00;32.38;;;;;;;;;;5053363;28;20204;-77
2023/12/08 08:47:39;;;;;;;33.80;30.75;;;;;;;;;;5053667;28;20223;-76
2023/12/08 08:50:07;;;;;;;35.05;31.77;;;;;;;;;;5053669;28;20200;-76
2023/12/08 08:52:35;;;;;;;36.42;32.95;;;;;;;;;;5053354;28;20691;-76
2023/12/08 08:55:02;;;;;;;27.52;25.35;;;;;;;;;;5053201;28;20295;-76
2023/12/08 08:57:29;;;;;;;33.40;30.15;;;;;;;;;;5053082;28;20310;-76
2023/12/08 08:59:57;;;;;;;37.22;32.90;;;;;;;;;;5053783;28;20259;-77
2023/12/08 09:02:24;;;;;;;33.97;30.65;;;;;;;;;;5053728;28;20281;-77
2023/12/08 09:04:51;;;;;;;34.47;31.13;;;;;;;;;;5053089;28;20200;-76
2023/12/08 09:07:18;;;;;;;35.22;31.92;;;;;;;;;;5053370;28;20232;-77
2023/12/08 09:09:45;;;;;;;33.55;30.35;;;;;;;;;;5053542;28;20254;-77
2023/12/08 09:12:12;;;;;;;35.88;32.25;;;;;;;;;;5053222;28;20223;-76
2023/12/08 09:14:39;;;;;;;30.00;27.75;;;;;;;;;;5051685;28;20212;-77
2023/12/08 09:17:08;;;;;;;33.22;30.02;;;;;;;;;;5053343;28;20246;-77
2023/12/08 09:19:35;;;;;;;35.03;31.88;;;;;;;;;;5053457;28;20910;-77
2023/12/08 09:22:03;;;;;;;37.47;33.70;;;;;;;;;;5053131;28;20204;-77
2023/12/08 09:24:30;;;;;;;40.92;36.58;;;;;;;;;;5052579;28;20724;-78
2023/12/08 09:26:57;;;;;;;34.90;31.50;;;;;;;;;;5053202;28;20406;-77
2023/12/08 09:29:24;;;;;;;38.20;34.42;;;;;;;;;;5052588;28;20208;-78
2023/12/08 09:31:51;;;;;;;37.58;33.90;;;;;;;;;;5052870;28;20738;-77
2023/12/08 09:34:19;;;;;;;37.35;32.75;;;;;;;;;;5052630;28;20219;-78
2023/12/08 09:36:46;;;;;;;35.35;31.95;;;;;;;;;;5053706;28;20274;-79
2023/12/08 09:39:13;;;;;;;35.22;31.92;;;;;;;;;;5053136;28;20209;-78
2023/12/08 09:41:42;;;;;;;38.30;34.53;;;;;;;;;;5052997;28;20211;-77
2023/12/08 09:44:12;;;;;;;34.05;31.02;;;;;;;;;;5059449;28;20230;-77
2023/12/08 09:46:41;;;;;;;39.03;35.47;;;;;;;;;;5072575;28;20223;-78
2023/12/08 09:49:08;;;;;;;38.17;34.33;;;;;;;;;;5071866;28;20207;-76
2023/12/08 09:51:37;;;;;;;38.20;34.17;;;;;;;;;;5071781;28;20547;-75
2023/12/08 09:54:04;;;;;;;37.60;33.78;;;;;;;;;;5071708;28;20277;-75
2023/12/08 09:56:31;;;;;;;36.03;32.65;;;;;;;;;;5070767;28;20702;-75
2023/12/08 09:58:59;;;;;;;36.40;32.88;;;;;;;;;;5052326;28;20208;-75
2023/12/08 10:01:26;;;;;;;34.88;31.42;;;;;;;;;;5053264;28;20212;-76
2023/12/08 10:03:53;;;;;;;34.95;31.65;;;;;;;;;;5051880;28;20196;-77
2023/12/08 10:06:22;;;;;;;31.23;28.33;;;;;;;;;;5061378;28;20206;-77
2023/12/08 10:08:50;;;;;;;32.70;29.73;;;;;;;;;;5071643;28;20265;-77
2023/12/08 10:11:17;;;;;;;33.00;29.88;;;;;;;;;;5071968;28;20208;-77
2023/12/08 10:13:44;;;;;;;32.70;29.45;;;;;;;;;;5071462;28;20231;-79
2023/12/08 10:16:11;;;;;;;37.35;33.88;;;;;;;;;;5074197;28;20212;-78
2023/12/08 10:18:38;;;;;;;35.65;32.33;;;;;;;;;;5072777;28;20212;-79
2023/12/08 10:21:15;;;;;;;35.95;32.42;;;;;;;;;;5070136;28;20211;-80
2023/12/08 10:23:43;;;;;;;38.10;34.28;;;;;;;;;;5073790;28;20214;-80
2023/12/08 10:26:12;;;;;;;37.38;34.10;;;;;;;;;;5070941;28;20612;-77
2023/12/08 10:28:39;;;;;;;34.65;31.00;;;;;;;;;;5072559;28;20289;-76
2023/12/08 10:31:06;;;;;;;34.00;31.00;;;;;;;;;;5072207;28;20183;-77
2023/12/08 10:33:33;;;;;;;36.40;33.10;;;;;;;;;;5071618;28;20416;-76
2023/12/08 10:36:00;;;;;;;33.40;30.27;;;;;;;;;;5071246;28;20203;-77
2023/12/08 10:38:27;;;;;;;36.03;32.72;;;;;;;;;;5071615;28;20227;-77
2023/12/08 10:40:55;;;;;;;35.47;31.98;;;;;;;;;;5071749;28;20207;-79
2023/12/08 10:43:25;;;;;;;34.20;30.77;;;;;;;;;;5072483;28;20263;-79
2023/12/08 10:45:52;;;;;;;34.55;31.27;;;;;;;;;;5072328;28;20673;-77
2023/12/08 10:48:20;;;;;;;36.42;33.10;;;;;;;;;;5071928;28;20223;-77
2023/12/08 10:50:48;;;;;;;34.75;31.48;;;;;;;;;;5071392;28;20218;-77
2023/12/08 10:53:16;;;;;;;34.55;31.02;;;;;;;;;;5071441;28;20234;-78
2023/12/08 10:55:43;;;;;;;36.47;32.88;;;;;;;;;;5071752;28;20203;-79
2023/12/08 10:58:14;;;;;;;38.03;34.22;;;;;;;;;;5065262;28;20224;-79
2023/12/08 11:00:43;;;;;;;36.38;32.53;;;;;;;;;;5070615;28;20211;-77
2023/12/08 11:03:10;;;;;;;36.85;33.65;;;;;;;;;;5072196;28;20937;-79
2023/12/08 11:05:38;;;;;;;36.92;33.10;;;;;;;;;;5071055;28;20203;-77
2023/12/08 11:08:12;;;;;;;35.22;31.65;;;;;;;;;;5071216;28;20240;-77
2023/12/08 11:10:40;;;;;;;36.53;33.17;;;;;;;;;;5071170;28;20187;-78
2023/12/08 11:13:09;;;;;;;38.33;34.42;;;;;;;;;;5071000;28;20223;-77
2023/12/08 11:15:39;;;;;;;38.78;35.28;;;;;;;;;;5071667;28;20243;-78
2023/12/08 11:18:14;;;;;;;36.88;33.28;;;;;;;;;;5070837;28;21065;-77
2023/12/08 11:20:41;;;;;;;36.85;33.10;;;;;;;;;;5070981;28;20187;-74
2023/12/08 11:23:09;;;;;;;38.60;35.00;;;;;;;;;;5071106;28;20261;-82
2023/12/08 11:25:39;;;;;;;37.10;33.65;;;;;;;;;;5070701;28;20199;-77
2023/12/08 11:28:09;;;;;;;36.28;32.67;;;;;;;;;;5056820;28;20294;-76
2023/12/08 11:30:39;;;;;;;36.42;32.90;;;;;;;;;;5051097;28;20952;-77
2023/12/08 11:33:10;;;;;;;36.85;33.10;;;;;;;;;;5050552;28;20254;-78
2023/12/08 11:35:38;;;;;;;34.53;31.20;;;;;;;;;;5051441;28;20193;-80
2023/12/08 11:38:06;;;;;;;38.97;35.05;;;;;;;;;;5055449;28;20302;-79
2023/12/08 11:40:33;;;;;;;37.40;33.63;;;;;;;;;;5055204;28;20230;-77
2023/12/08 11:43:01;;;;;;;38.80;34.63;;;;;;;;;;5054728;28;20204;-77
2023/12/08 11:45:29;;;;;;;36.42;33.08;;;;;;;;;;5054249;28;20234;-77
2023/12/08 11:47:56;;;;;;;33.47;30.42;;;;;;;;;;5054573;28;20228;-78
2023/12/08 11:50:25;;;;;;;36.63;33.15;;;;;;;;;;5054456;28;20215;-77
2023/12/08 11:52:53;;;;;;;38.40;34.58;;;;;;;;;;5054660;28;20232;-77
2023/12/08 11:55:23;;;;;;;35.22;32.00;;;;;;;;;;5054237;28;20254;-79
2023/12/08 11:57:55;;;;;;;36.42;33.08;;;;;;;;;;5054540;28;20293;-78
2023/12/08 12:00:23;;;;;;;36.47;33.33;;;;;;;;;;5054890;28;20208;-78
2023/12/08 12:02:50;;;;;;;36.85;33.47;;;;;;;;;;5064263;28;20207;-80
2023/12/08 12:05:18;;;;;;;34.42;31.48;;;;;;;;;;5077461;28;20208;-80
2023/12/08 12:07:49;;;;;;;33.13;30.15;;;;;;;;;;5076002;28;20219;-80
2023/12/08 12:10:17;;;;;;;35.55;32.40;;;;;;;;;;5073744;28;20243;-78
2023/12/08 12:12:49;;;;;;;35.22;32.03;;;;;;;;;;5074092;28;20200;-77
2023/12/08 12:15:19;;;;;;;34.78;31.60;;;;;;;;;;5073309;28;20210;-78
2023/12/08 12:17:46;;;;;;;35.25;32.13;;;;;;;;;;5073364;28;20609;-77
2023/12/08 12:20:13;;;;;;;34.08;30.90;;;;;;;;;;5074001;28;20211;-77
2023/12/08 12:22:40;;;;;;;33.28;30.40;;;;;;;;;;5074093;28;20257;-78
2023/12/08 12:25:10;;;;;;;32.08;29.25;;;;;;;;;;5073373;28;20257;-77
2023/12/08 12:27:39;;;;;;;34.08;31.02;;;;;;;;;;5073430;28;20288;-78
2023/12/08 12:30:07;;;;;;;38.63;35.15;;;;;;;;;;5073578;28;20204;-78
2023/12/08 12:32:34;;;;;;;34.05;30.95;;;;;;;;;;5074873;28;20245;-78
2023/12/08 12:35:01;;;;;;;35.35;32.05;;;;;;;;;;5073882;28;20715;-80
2023/12/08 12:37:28;;;;;;;37.28;33.88;;;;;;;;;;5053618;28;20224;-80
2023/12/08 12:39:55;;;;;;;40.40;36.60;;;;;;;;;;5056670;28;20342;-79
2023/12/08 12:42:23;;;;;;;39.70;35.90;;;;;;;;;;5054451;28;20208;-75
2023/12/08 12:44:51;;;;;;;39.97;36.17;;;;;;;;;;5054291;28;20276;-76
2023/12/08 12:47:21;;;;;;;39.97;36.33;;;;;;;;;;5053616;28;20224;-77
2023/12/08 12:50:00;;;;;;;36.10;32.72;;;;;;;;;;5053636;28;20250;-77
2023/12/08 12:52:28;;;;;;;37.13;33.53;;;;;;;;;;5052791;28;20212;-77
2023/12/08 12:54:55;;;;;;;38.33;34.75;;;;;;;;;;5052538;28;20224;-77
2023/12/08 12:57:40;;;;;;;35.88;32.63;;;;;;;;;;5052885;28;20228;-76
2023/12/08 13:00:09;;;;;;;39.53;36.03;;;;;;;;;;5053269;28;21005;-77
2023/12/08 13:02:36;;;;;;;36.80;33.42;;;;;;;;;;5053157;28;20255;-77
2023/12/08 13:05:07;;;;;;;35.50;32.60;;;;;;;;;;5052334;28;20610;-76
2023/12/08 13:07:33;;;;;;;40.70;36.80;;;;;;;;;;5053199;28;20234;-76
2023/12/08 13:10:00;;;;;;;35.45;32.15;;;;;;;;;;5052883;28;20204;-75
2023/12/08 13:12:29;;;;;;;36.70;33.58;;;;;;;;;;5052448;28;20239;-77
2023/12/08 13:14:56;;;;;;;36.95;33.58;;;;;;;;;;5052277;28;20232;-76
2023/12/08 13:17:23;;;;;;;37.03;33.63;;;;;;;;;;5052466;28;20232;-76
2023/12/08 13:19:51;;;;;;;35.47;32.10;;;;;;;;;;5052534;28;20634;-75
2023/12/08 13:22:18;;;;;;;37.10;33.70;;;;;;;;;;5052573;28;20208;-77
2023/12/08 13:24:47;;;;;;;39.28;35.28;;;;;;;;;;5062798;28;20207;-77
2023/12/08 13:27:14;;;;;;;41.97;37.90;;;;;;;;;;5058770;28;20790;-76
2023/12/08 13:29:42;;;;;;;40.83;36.80;;;;;;;;;;5052619;28;20242;-77
2023/12/08 13:32:09;;;;;;;45.90;37.33;;;;;;;;;;5052457;28;20216;-76
2023/12/08 13:34:36;;;;;;;40.15;36.45;;;;;;;;;;5051594;28;20285;-76
2023/12/08 13:37:03;;;;;;;40.72;34.85;;;;;;;;;;5055332;28;20297;-75
2023/12/08 13:39:30;;;;;;;39.70;35.70;;;;;;;;;;5072409;28;20210;-77
2023/12/08 13:41:57;;;;;;;41.35;36.97;;;;;;;;;;5069656;28;20204;-76
2023/12/08 13:44:24;;;;;;;38.72;34.95;;;;;;;;;;5053575;28;20200;-76
2023/12/08 13:46:53;;;;;;;38.08;34.60;;;;;;;;;;5051541;28;20223;-76
2023/12/08 13:49:20;;;;;;;37.65;34.08;;;;;;;;;;5051681;28;20644;-77
2023/12/08 13:51:47;;;;;;;36.88;33.50;;;;;;;;;;5052018;28;20261;-76
2023/12/08 13:54:14;;;;;;;37.38;33.85;;;;;;;;;;5051589;28;20220;-77
2023/12/08 13:56:41;;;;;;;37.97;34.35;;;;;;;;;;5051809;28;20746;-77
2023/12/08 13:59:08;;;;;;;36.80;33.47;;;;;;;;;;5051599;28;20214;-76
2023/12/08 14:01:35;;;;;;;39.45;35.58;;;;;;;;;;5051846;28;20664;-77
2023/12/08 14:04:03;;;;;;;37.20;33.55;;;;;;;;;;5051452;28;20539;-77
2023/12/08 14:06:30;;;;;;;37.92;34.30;;;;;;;;;;5051969;28;20208;-76
2023/12/08 14:08:57;;;;;;;40.15;35.97;;;;;;;;;;5051967;28;20207;-79
2023/12/08 14:11:24;;;;;;;59.03;52.78;;;;;;;;;;5051941;28;20291;-76
2023/12/08 14:13:52;;;;;;;43.20;38.83;;;;;;;;;;5051196;28;20230;-76
2023/12/08 14:16:19;;;;;;;48.13;42.63;;;;;;;;;;5051786;28;20212;-77
2023/12/08 14:18:46;;;;;;;48.03;43.17;;;;;;;;;;5051648;28;20301;-76